sensor_id;sensor_type;location;lat;lon;timestamp;P1;durP1;ratioP1;P2;durP2;ratioP2
15381;SDS011;7789;51.364;12.358;2023-03-01T00:03:28;12.30;;;8.40;;
15381;SDS011;7789;51.364;12.358;2023-03-01T00:08:33;11.97;;;7.73;;
15381;SDS011;7789;51.364;12.358;2023-03-01T00:13:37;12.17;;;7.13;;
15381;SDS011;7789;51.364;12.358;2023-03-01T00:18:41;11.47;;;7.27;;
15381;SDS011;7789;51.364;12.358;2023-03-01T00:23:46;13.40;;;7.40;;
15381;SDS011;7789;51.364;12.358;2023-03-01T00:28:51;9.93;;;6.87;;
15381;SDS011;7789;51.364;12.358;2023-03-01T00:33:55;10.20;;;6.77;;
15381;SDS011;7789;51.364;12.358;2023-03-01T00:39:01;13.77;;;6.47;;
15381;SDS011;7789;51.364;12.358;2023-03-01T00:44:05;12.33;;;6.90;;
15381;SDS011;7789;51.364;12.358;2023-03-01T00:49:08;7.50;;;6.07;;
15381;SDS011;7789;51.364;12.358;2023-03-01T00:54:16;10.97;;;6.67;;
15381;SDS011;7789;51.364;12.358;2023-03-01T00:59:19;10.17;;;6.97;;
15381;SDS011;7789;51.364;12.358;2023-03-01T01:04:22;10.00;;;6.20;;
15381;SDS011;7789;51.364;12.358;2023-03-01T01:09:27;10.73;;;5.93;;
15381;SDS011;7789;51.364;12.358;2023-03-01T01:14:30;11.93;;;6.30;;
15381;SDS011;7789;51.364;12.358;2023-03-01T01:19:33;10.40;;;6.20;;
15381;SDS011;7789;51.364;12.358;2023-03-01T01:24:38;9.93;;;6.30;;
15381;SDS011;7789;51.364;12.358;2023-03-01T01:29:41;9.83;;;6.40;;
15381;SDS011;7789;51.364;12.358;2023-03-01T01:34:45;9.17;;;6.50;;
15381;SDS011;7789;51.364;12.358;2023-03-01T01:39:50;8.70;;;5.97;;
15381;SDS011;7789;51.364;12.358;2023-03-01T01:50:35;10.10;;;6.27;;
15381;SDS011;7789;51.364;12.358;2023-03-01T01:55:42;9.97;;;6.53;;
15381;SDS011;7789;51.364;12.358;2023-03-01T02:00:49;12.47;;;6.53;;
15381;SDS011;7789;51.364;12.358;2023-03-01T02:05:55;11.47;;;6.83;;
15381;SDS011;7789;51.364;12.358;2023-03-01T02:11:03;10.60;;;6.70;;
15381;SDS011;7789;51.364;12.358;2023-03-01T02:16:08;10.93;;;7.13;;
15381;SDS011;7789;51.364;12.358;2023-03-01T02:21:26;10.73;;;6.43;;
15381;SDS011;7789;51.364;12.358;2023-03-01T02:26:40;10.63;;;6.40;;
15381;SDS011;7789;51.364;12.358;2023-03-01T02:31:49;10.53;;;6.33;;
15381;SDS011;7789;51.364;12.358;2023-03-01T02:36:56;8.37;;;6.03;;
15381;SDS011;7789;51.364;12.358;2023-03-01T02:42:05;9.80;;;6.53;;
15381;SDS011;7789;51.364;12.358;2023-03-01T02:47:11;9.43;;;6.60;;
15381;SDS011;7789;51.364;12.358;2023-03-01T02:52:25;11.07;;;6.83;;
15381;SDS011;7789;51.364;12.358;2023-03-01T02:57:35;10.73;;;6.20;;
15381;SDS011;7789;51.364;12.358;2023-03-01T03:02:43;12.93;;;6.63;;
15381;SDS011;7789;51.364;12.358;2023-03-01T03:07:47;14.87;;;8.10;;
15381;SDS011;7789;51.364;12.358;2023-03-01T03:12:51;11.33;;;7.07;;
15381;SDS011;7789;51.364;12.358;2023-03-01T03:17:58;10.93;;;7.13;;
15381;SDS011;7789;51.364;12.358;2023-03-01T03:23:01;14.43;;;7.50;;
15381;SDS011;7789;51.364;12.358;2023-03-01T03:28:05;12.97;;;7.33;;
15381;SDS011;7789;51.364;12.358;2023-03-01T03:33:13;11.90;;;7.37;;
15381;SDS011;7789;51.364;12.358;2023-03-01T03:38:17;12.70;;;7.27;;
15381;SDS011;7789;51.364;12.358;2023-03-01T03:43:23;12.80;;;7.83;;
15381;SDS011;7789;51.364;12.358;2023-03-01T03:48:28;12.30;;;7.50;;
15381;SDS011;7789;51.364;12.358;2023-03-01T03:53:31;13.43;;;7.67;;
15381;SDS011;7789;51.364;12.358;2023-03-01T03:58:35;15.80;;;8.17;;
15381;SDS011;7789;51.364;12.358;2023-03-01T04:03:40;9.53;;;6.77;;
15381;SDS011;7789;51.364;12.358;2023-03-01T04:08:48;15.23;;;7.83;;
15381;SDS011;7789;51.364;12.358;2023-03-01T04:13:53;12.53;;;7.63;;
15381;SDS011;7789;51.364;12.358;2023-03-01T04:18:58;13.90;;;8.13;;
15381;SDS011;7789;51.364;12.358;2023-03-01T04:24:02;10.97;;;7.40;;
15381;SDS011;7789;51.364;12.358;2023-03-01T04:29:05;14.23;;;7.40;;
15381;SDS011;7789;51.364;12.358;2023-03-01T04:34:10;13.07;;;7.67;;
15381;SDS011;7789;51.364;12.358;2023-03-01T04:39:15;11.63;;;8.30;;
15381;SDS011;7789;51.364;12.358;2023-03-01T04:44:18;12.53;;;7.53;;
15381;SDS011;7789;51.364;12.358;2023-03-01T04:49:23;11.67;;;7.53;;
15381;SDS011;7789;51.364;12.358;2023-03-01T04:54:29;11.20;;;7.30;;
15381;SDS011;7789;51.364;12.358;2023-03-01T04:59:32;12.93;;;7.67;;
15381;SDS011;7789;51.364;12.358;2023-03-01T05:04:39;10.40;;;7.97;;
15381;SDS011;7789;51.364;12.358;2023-03-01T05:09:42;12.43;;;7.73;;
15381;SDS011;7789;51.364;12.358;2023-03-01T05:14:45;10.23;;;6.90;;
15381;SDS011;7789;51.364;12.358;2023-03-01T05:19:50;13.17;;;7.77;;
15381;SDS011;7789;51.364;12.358;2023-03-01T05:24:54;12.83;;;8.27;;
15381;SDS011;7789;51.364;12.358;2023-03-01T05:29:57;11.17;;;7.80;;
15381;SDS011;7789;51.364;12.358;2023-03-01T05:35:02;14.17;;;7.93;;
15381;SDS011;7789;51.364;12.358;2023-03-01T05:40:06;11.73;;;7.20;;
15381;SDS011;7789;51.364;12.358;2023-03-01T05:45:17;12.20;;;7.90;;
15381;SDS011;7789;51.364;12.358;2023-03-01T05:50:23;11.13;;;8.23;;
15381;SDS011;7789;51.364;12.358;2023-03-01T05:55:28;14.47;;;8.50;;
15381;SDS011;7789;51.364;12.358;2023-03-01T06:00:33;13.17;;;8.43;;
15381;SDS011;7789;51.364;12.358;2023-03-01T06:05:38;17.17;;;8.53;;
15381;SDS011;7789;51.364;12.358;2023-03-01T06:10:42;18.27;;;10.90;;
15381;SDS011;7789;51.364;12.358;2023-03-01T06:15:45;12.50;;;8.27;;
15381;SDS011;7789;51.364;12.358;2023-03-01T06:20:55;14.20;;;8.90;;
15381;SDS011;7789;51.364;12.358;2023-03-01T06:26:07;16.97;;;9.63;;
15381;SDS011;7789;51.364;12.358;2023-03-01T06:31:13;16.80;;;9.00;;
15381;SDS011;7789;51.364;12.358;2023-03-01T06:36:18;13.20;;;7.97;;
15381;SDS011;7789;51.364;12.358;2023-03-01T06:41:29;14.10;;;8.13;;
15381;SDS011;7789;51.364;12.358;2023-03-01T06:46:34;14.07;;;8.90;;
15381;SDS011;7789;51.364;12.358;2023-03-01T06:51:39;14.57;;;9.57;;
15381;SDS011;7789;51.364;12.358;2023-03-01T06:56:42;16.87;;;10.23;;
15381;SDS011;7789;51.364;12.358;2023-03-01T07:01:48;16.47;;;9.50;;
15381;SDS011;7789;51.364;12.358;2023-03-01T07:06:53;16.27;;;10.00;;
15381;SDS011;7789;51.364;12.358;2023-03-01T07:12:00;17.97;;;9.40;;
15381;SDS011;7789;51.364;12.358;2023-03-01T07:17:07;13.50;;;8.60;;
15381;SDS011;7789;51.364;12.358;2023-03-01T07:22:22;14.80;;;8.83;;
15381;SDS011;7789;51.364;12.358;2023-03-01T07:27:29;14.60;;;8.40;;
15381;SDS011;7789;51.364;12.358;2023-03-01T07:32:32;16.60;;;8.50;;
15381;SDS011;7789;51.364;12.358;2023-03-01T07:37:37;12.23;;;7.60;;
15381;SDS011;7789;51.364;12.358;2023-03-01T07:42:40;14.87;;;7.60;;
15381;SDS011;7789;51.364;12.358;2023-03-01T07:47:44;11.20;;;7.87;;
15381;SDS011;7789;51.364;12.358;2023-03-01T07:52:59;12.60;;;7.87;;
15381;SDS011;7789;51.364;12.358;2023-03-01T07:58:06;13.07;;;8.17;;
15381;SDS011;7789;51.364;12.358;2023-03-01T08:03:09;13.10;;;8.50;;
15381;SDS011;7789;51.364;12.358;2023-03-01T08:08:18;14.87;;;8.47;;
15381;SDS011;7789;51.364;12.358;2023-03-01T08:13:21;12.67;;;8.57;;
15381;SDS011;7789;51.364;12.358;2023-03-01T08:18:25;14.80;;;9.20;;
15381;SDS011;7789;51.364;12.358;2023-03-01T08:23:29;13.77;;;9.53;;
15381;SDS011;7789;51.364;12.358;2023-03-01T08:28:33;12.87;;;8.90;;
15381;SDS011;7789;51.364;12.358;2023-03-01T08:33:36;14.47;;;8.70;;
15381;SDS011;7789;51.364;12.358;2023-03-01T08:38:40;14.47;;;9.23;;
15381;SDS011;7789;51.364;12.358;2023-03-01T08:43:44;12.27;;;9.30;;
15381;SDS011;7789;51.364;12.358;2023-03-01T08:48:47;17.83;;;10.83;;
15381;SDS011;7789;51.364;12.358;2023-03-01T08:53:52;12.80;;;9.73;;
15381;SDS011;7789;51.364;12.358;2023-03-01T08:58:55;12.77;;;9.53;;
15381;SDS011;7789;51.364;12.358;2023-03-01T09:03:59;12.67;;;9.43;;
15381;SDS011;7789;51.364;12.358;2023-03-01T09:09:04;15.63;;;9.60;;
15381;SDS011;7789;51.364;12.358;2023-03-01T09:14:09;13.37;;;9.40;;
15381;SDS011;7789;51.364;12.358;2023-03-01T09:19:12;13.47;;;10.10;;
15381;SDS011;7789;51.364;12.358;2023-03-01T09:24:18;14.27;;;10.47;;
15381;SDS011;7789;51.364;12.358;2023-03-01T09:29:23;16.33;;;10.60;;
15381;SDS011;7789;51.364;12.358;2023-03-01T09:34:27;15.53;;;10.43;;
15381;SDS011;7789;51.364;12.358;2023-03-01T09:39:32;14.60;;;10.10;;
15381;SDS011;7789;51.364;12.358;2023-03-01T09:44:36;14.03;;;10.37;;
15381;SDS011;7789;51.364;12.358;2023-03-01T09:49:44;15.27;;;11.03;;
15381;SDS011;7789;51.364;12.358;2023-03-01T09:54:57;15.93;;;10.20;;
15381;SDS011;7789;51.364;12.358;2023-03-01T10:00:05;16.70;;;10.70;;
15381;SDS011;7789;51.364;12.358;2023-03-01T10:05:27;15.47;;;10.50;;
15381;SDS011;7789;51.364;12.358;2023-03-01T10:10:50;15.47;;;10.80;;
15381;SDS011;7789;51.364;12.358;2023-03-01T10:15:56;16.60;;;10.47;;
15381;SDS011;7789;51.364;12.358;2023-03-01T10:21:08;15.07;;;10.47;;
15381;SDS011;7789;51.364;12.358;2023-03-01T10:26:27;12.23;;;9.33;;
15381;SDS011;7789;51.364;12.358;2023-03-01T10:31:43;13.17;;;9.57;;
15381;SDS011;7789;51.364;12.358;2023-03-01T10:36:50;13.87;;;9.70;;
15381;SDS011;7789;51.364;12.358;2023-03-01T10:41:58;15.00;;;9.33;;
15381;SDS011;7789;51.364;12.358;2023-03-01T10:47:03;13.23;;;9.60;;
15381;SDS011;7789;51.364;12.358;2023-03-01T10:52:11;14.33;;;9.87;;
15381;SDS011;7789;51.364;12.358;2023-03-01T10:57:27;14.93;;;9.73;;
15381;SDS011;7789;51.364;12.358;2023-03-01T11:02:33;17.00;;;10.93;;
15381;SDS011;7789;51.364;12.358;2023-03-01T11:07:46;16.97;;;11.80;;
15381;SDS011;7789;51.364;12.358;2023-03-01T11:12:52;17.80;;;11.20;;
15381;SDS011;7789;51.364;12.358;2023-03-01T11:18:17;16.23;;;10.83;;
15381;SDS011;7789;51.364;12.358;2023-03-01T11:23:37;16.87;;;10.80;;
15381;SDS011;7789;51.364;12.358;2023-03-01T11:28:43;13.97;;;10.67;;
15381;SDS011;7789;51.364;12.358;2023-03-01T11:33:55;16.27;;;11.27;;
15381;SDS011;7789;51.364;12.358;2023-03-01T11:39:03;14.43;;;10.40;;
15381;SDS011;7789;51.364;12.358;2023-03-01T11:44:16;17.50;;;10.90;;
15381;SDS011;7789;51.364;12.358;2023-03-01T11:55:11;16.00;;;10.70;;
15381;SDS011;7789;51.364;12.358;2023-03-01T12:00:33;11.43;;;8.97;;
15381;SDS011;7789;51.364;12.358;2023-03-01T12:11:18;13.73;;;9.70;;
15381;SDS011;7789;51.364;12.358;2023-03-01T12:16:39;12.97;;;9.30;;
15381;SDS011;7789;51.364;12.358;2023-03-01T12:22:03;11.93;;;8.37;;
15381;SDS011;7789;51.364;12.358;2023-03-01T12:27:32;10.60;;;7.23;;
15381;SDS011;7789;51.364;12.358;2023-03-01T12:32:52;10.20;;;7.87;;
15381;SDS011;7789;51.364;12.358;2023-03-01T12:38:13;10.10;;;7.37;;
15381;SDS011;7789;51.364;12.358;2023-03-01T12:43:31;10.90;;;8.03;;
15381;SDS011;7789;51.364;12.358;2023-03-01T12:48:51;12.77;;;8.50;;
15381;SDS011;7789;51.364;12.358;2023-03-01T12:54:05;14.50;;;10.70;;
15381;SDS011;7789;51.364;12.358;2023-03-01T12:59:17;13.07;;;9.20;;
15381;SDS011;7789;51.364;12.358;2023-03-01T13:04:35;13.33;;;9.03;;
15381;SDS011;7789;51.364;12.358;2023-03-01T13:09:50;11.70;;;8.83;;
15381;SDS011;7789;51.364;12.358;2023-03-01T13:15:03;9.67;;;7.97;;
15381;SDS011;7789;51.364;12.358;2023-03-01T13:20:29;16.47;;;8.60;;
15381;SDS011;7789;51.364;12.358;2023-03-01T13:31:06;14.50;;;9.17;;
15381;SDS011;7789;51.364;12.358;2023-03-01T13:36:13;10.33;;;7.60;;
15381;SDS011;7789;51.364;12.358;2023-03-01T13:41:57;12.90;;;8.40;;
15381;SDS011;7789;51.364;12.358;2023-03-01T13:47:03;10.17;;;7.30;;
15381;SDS011;7789;51.364;12.358;2023-03-01T13:57:44;8.40;;;6.20;;
15381;SDS011;7789;51.364;12.358;2023-03-01T14:03:02;13.13;;;6.20;;
15381;SDS011;7789;51.364;12.358;2023-03-01T14:08:19;7.60;;;5.10;;
15381;SDS011;7789;51.364;12.358;2023-03-01T14:13:30;8.00;;;5.40;;
15381;SDS011;7789;51.364;12.358;2023-03-01T14:18:46;9.43;;;5.20;;
15381;SDS011;7789;51.364;12.358;2023-03-01T14:23:57;7.43;;;4.70;;
15381;SDS011;7789;51.364;12.358;2023-03-01T14:29:01;7.50;;;5.53;;
15381;SDS011;7789;51.364;12.358;2023-03-01T14:34:04;7.67;;;5.07;;
15381;SDS011;7789;51.364;12.358;2023-03-01T14:39:17;8.17;;;5.13;;
15381;SDS011;7789;51.364;12.358;2023-03-01T14:44:23;8.23;;;5.53;;
15381;SDS011;7789;51.364;12.358;2023-03-01T14:49:28;7.30;;;5.17;;
15381;SDS011;7789;51.364;12.358;2023-03-01T14:54:37;8.60;;;5.37;;
15381;SDS011;7789;51.364;12.358;2023-03-01T14:59:44;10.40;;;5.23;;
15381;SDS011;7789;51.364;12.358;2023-03-01T15:04:50;9.33;;;5.17;;
15381;SDS011;7789;51.364;12.358;2023-03-01T15:09:59;7.80;;;5.70;;
15381;SDS011;7789;51.364;12.358;2023-03-01T15:15:22;11.90;;;7.43;;
15381;SDS011;7789;51.364;12.358;2023-03-01T15:20:36;8.33;;;5.97;;
15381;SDS011;7789;51.364;12.358;2023-03-01T15:25:43;6.57;;;4.90;;
15381;SDS011;7789;51.364;12.358;2023-03-01T15:30:51;7.53;;;5.40;;
15381;SDS011;7789;51.364;12.358;2023-03-01T15:35:58;8.83;;;5.00;;
15381;SDS011;7789;51.364;12.358;2023-03-01T15:41:05;7.50;;;4.90;;
15381;SDS011;7789;51.364;12.358;2023-03-01T15:46:26;10.63;;;5.83;;
15381;SDS011;7789;51.364;12.358;2023-03-01T15:51:34;8.60;;;4.73;;
15381;SDS011;7789;51.364;12.358;2023-03-01T15:56:40;6.57;;;4.77;;
15381;SDS011;7789;51.364;12.358;2023-03-01T16:01:45;6.50;;;4.73;;
15381;SDS011;7789;51.364;12.358;2023-03-01T16:06:50;6.33;;;4.37;;
15381;SDS011;7789;51.364;12.358;2023-03-01T16:11:58;7.60;;;5.07;;
15381;SDS011;7789;51.364;12.358;2023-03-01T16:17:01;8.10;;;5.13;;
15381;SDS011;7789;51.364;12.358;2023-03-01T16:22:05;6.90;;;4.47;;
15381;SDS011;7789;51.364;12.358;2023-03-01T16:27:12;8.27;;;5.43;;
15381;SDS011;7789;51.364;12.358;2023-03-01T16:32:17;8.60;;;5.80;;
15381;SDS011;7789;51.364;12.358;2023-03-01T16:37:20;11.17;;;5.70;;
15381;SDS011;7789;51.364;12.358;2023-03-01T16:42:25;10.10;;;5.00;;
15381;SDS011;7789;51.364;12.358;2023-03-01T16:47:28;9.57;;;6.07;;
15381;SDS011;7789;51.364;12.358;2023-03-01T16:52:33;13.43;;;6.57;;
15381;SDS011;7789;51.364;12.358;2023-03-01T16:57:38;9.80;;;5.60;;
15381;SDS011;7789;51.364;12.358;2023-03-01T17:02:42;8.73;;;5.97;;
15381;SDS011;7789;51.364;12.358;2023-03-01T17:07:45;9.43;;;5.87;;
15381;SDS011;7789;51.364;12.358;2023-03-01T17:12:50;7.23;;;4.87;;
15381;SDS011;7789;51.364;12.358;2023-03-01T17:17:53;8.97;;;5.53;;
15381;SDS011;7789;51.364;12.358;2023-03-01T17:22:56;7.03;;;4.97;;
15381;SDS011;7789;51.364;12.358;2023-03-01T17:28:01;8.43;;;5.30;;
15381;SDS011;7789;51.364;12.358;2023-03-01T17:33:04;10.67;;;4.77;;
15381;SDS011;7789;51.364;12.358;2023-03-01T17:38:08;6.93;;;4.70;;
15381;SDS011;7789;51.364;12.358;2023-03-01T17:43:14;7.53;;;5.00;;
15381;SDS011;7789;51.364;12.358;2023-03-01T17:48:18;9.47;;;4.93;;
15381;SDS011;7789;51.364;12.358;2023-03-01T17:53:22;11.00;;;7.13;;
15381;SDS011;7789;51.364;12.358;2023-03-01T17:58:26;9.40;;;5.83;;
15381;SDS011;7789;51.364;12.358;2023-03-01T18:03:30;7.37;;;4.53;;
15381;SDS011;7789;51.364;12.358;2023-03-01T18:08:33;7.27;;;4.50;;
15381;SDS011;7789;51.364;12.358;2023-03-01T18:13:37;8.03;;;4.93;;
15381;SDS011;7789;51.364;12.358;2023-03-01T18:18:41;6.90;;;4.80;;
15381;SDS011;7789;51.364;12.358;2023-03-01T18:23:45;10.20;;;5.77;;
15381;SDS011;7789;51.364;12.358;2023-03-01T18:28:50;18.17;;;8.90;;
15381;SDS011;7789;51.364;12.358;2023-03-01T18:33:54;10.43;;;5.90;;
15381;SDS011;7789;51.364;12.358;2023-03-01T18:38:57;9.90;;;7.20;;
15381;SDS011;7789;51.364;12.358;2023-03-01T18:44:02;9.03;;;4.90;;
15381;SDS011;7789;51.364;12.358;2023-03-01T18:49:07;7.20;;;5.30;;
15381;SDS011;7789;51.364;12.358;2023-03-01T18:54:13;7.97;;;4.80;;
15381;SDS011;7789;51.364;12.358;2023-03-01T18:59:23;7.53;;;4.43;;
15381;SDS011;7789;51.364;12.358;2023-03-01T19:04:30;7.63;;;4.63;;
15381;SDS011;7789;51.364;12.358;2023-03-01T19:09:38;9.47;;;5.03;;
15381;SDS011;7789;51.364;12.358;2023-03-01T19:14:43;8.57;;;4.80;;
15381;SDS011;7789;51.364;12.358;2023-03-01T19:19:46;7.47;;;5.43;;
15381;SDS011;7789;51.364;12.358;2023-03-01T19:24:52;9.73;;;4.73;;
15381;SDS011;7789;51.364;12.358;2023-03-01T19:29:57;7.47;;;4.83;;
15381;SDS011;7789;51.364;12.358;2023-03-01T19:35:02;7.37;;;5.30;;
15381;SDS011;7789;51.364;12.358;2023-03-01T19:40:06;9.20;;;6.17;;
15381;SDS011;7789;51.364;12.358;2023-03-01T19:45:12;8.70;;;5.10;;
15381;SDS011;7789;51.364;12.358;2023-03-01T19:50:22;6.53;;;4.20;;
15381;SDS011;7789;51.364;12.358;2023-03-01T19:55:26;8.47;;;4.30;;
15381;SDS011;7789;51.364;12.358;2023-03-01T20:00:43;8.37;;;4.47;;
15381;SDS011;7789;51.364;12.358;2023-03-01T20:05:48;6.83;;;4.83;;
15381;SDS011;7789;51.364;12.358;2023-03-01T20:10:51;7.27;;;4.33;;
15381;SDS011;7789;51.364;12.358;2023-03-01T20:15:56;7.40;;;4.53;;
15381;SDS011;7789;51.364;12.358;2023-03-01T20:21:00;6.80;;;4.60;;
15381;SDS011;7789;51.364;12.358;2023-03-01T20:26:19;6.23;;;4.30;;
15381;SDS011;7789;51.364;12.358;2023-03-01T20:31:25;8.07;;;4.70;;
15381;SDS011;7789;51.364;12.358;2023-03-01T20:36:30;10.47;;;5.17;;
15381;SDS011;7789;51.364;12.358;2023-03-01T20:41:35;7.87;;;5.17;;
15381;SDS011;7789;51.364;12.358;2023-03-01T20:46:41;6.17;;;4.67;;
15381;SDS011;7789;51.364;12.358;2023-03-01T20:51:47;7.50;;;4.57;;
15381;SDS011;7789;51.364;12.358;2023-03-01T20:56:53;8.70;;;4.97;;
15381;SDS011;7789;51.364;12.358;2023-03-01T21:01:57;7.93;;;5.00;;
15381;SDS011;7789;51.364;12.358;2023-03-01T21:07:01;8.33;;;5.00;;
15381;SDS011;7789;51.364;12.358;2023-03-01T21:12:04;8.47;;;5.17;;
15381;SDS011;7789;51.364;12.358;2023-03-01T21:17:09;8.13;;;4.83;;
15381;SDS011;7789;51.364;12.358;2023-03-01T21:22:14;6.33;;;4.00;;
15381;SDS011;7789;51.364;12.358;2023-03-01T21:27:17;8.87;;;4.53;;
15381;SDS011;7789;51.364;12.358;2023-03-01T21:32:23;7.23;;;4.50;;
15381;SDS011;7789;51.364;12.358;2023-03-01T21:37:27;8.73;;;5.17;;
15381;SDS011;7789;51.364;12.358;2023-03-01T21:42:30;8.80;;;5.03;;
15381;SDS011;7789;51.364;12.358;2023-03-01T21:47:38;7.73;;;4.60;;
15381;SDS011;7789;51.364;12.358;2023-03-01T21:52:41;9.10;;;5.50;;
15381;SDS011;7789;51.364;12.358;2023-03-01T21:57:44;11.23;;;6.57;;
15381;SDS011;7789;51.364;12.358;2023-03-01T22:02:49;9.23;;;5.40;;
15381;SDS011;7789;51.364;12.358;2023-03-01T22:07:52;7.30;;;5.13;;
15381;SDS011;7789;51.364;12.358;2023-03-01T22:12:56;8.27;;;4.63;;
15381;SDS011;7789;51.364;12.358;2023-03-01T22:18:02;15.60;;;7.80;;
15381;SDS011;7789;51.364;12.358;2023-03-01T22:23:05;14.87;;;8.27;;
15381;SDS011;7789;51.364;12.358;2023-03-01T22:28:10;10.90;;;6.37;;
15381;SDS011;7789;51.364;12.358;2023-03-01T22:33:14;9.57;;;5.90;;
15381;SDS011;7789;51.364;12.358;2023-03-01T22:38:18;8.23;;;5.77;;
15381;SDS011;7789;51.364;12.358;2023-03-01T22:43:21;7.67;;;5.57;;
15381;SDS011;7789;51.364;12.358;2023-03-01T22:48:25;8.83;;;4.97;;
15381;SDS011;7789;51.364;12.358;2023-03-01T22:53:29;8.53;;;5.23;;
15381;SDS011;7789;51.364;12.358;2023-03-01T22:58:32;9.20;;;5.77;;
15381;SDS011;7789;51.364;12.358;2023-03-01T23:03:36;8.53;;;5.53;;
15381;SDS011;7789;51.364;12.358;2023-03-01T23:08:40;9.20;;;5.73;;
15381;SDS011;7789;51.364;12.358;2023-03-01T23:13:44;9.87;;;6.77;;
15381;SDS011;7789;51.364;12.358;2023-03-01T23:18:48;10.80;;;7.03;;
15381;SDS011;7789;51.364;12.358;2023-03-01T23:23:52;14.63;;;8.57;;
15381;SDS011;7789;51.364;12.358;2023-03-01T23:28:56;10.07;;;6.57;;
15381;SDS011;7789;51.364;12.358;2023-03-01T23:34:01;12.40;;;6.93;;
15381;SDS011;7789;51.364;12.358;2023-03-01T23:39:05;9.83;;;6.53;;
15381;SDS011;7789;51.364;12.358;2023-03-01T23:44:10;12.13;;;6.90;;
15381;SDS011;7789;51.364;12.358;2023-03-01T23:49:18;10.20;;;7.20;;
15381;SDS011;7789;51.364;12.358;2023-03-01T23:54:23;15.17;;;6.70;;
15381;SDS011;7789;51.364;12.358;2023-03-01T23:59:27;11.83;;;6.20;;
